Scituate Center, Massachusetts
Current Conditions -  °F | °C
As of 12:54 AM on Wednesday 22 Oct 2014 (Local Time) from KBOS Reporting Station
Overcast Overcast  
Wind Chill: 53°   Ceiling: 500
Heat Index: 53°   Visibility: 10mi
Dew Point: 51°   Wind: 10mph
Humidity: 93%   Direction: 350°N
Pressure: 29.99"   Gusts: NA
Location:  42.201°N, 70.7631°W
Report Text: KBOS 220454Z 35009KT 10SM OVC005 12/11 A2999 RMK AO2 SLP153 T01170106 401670094
Loading
Personal Weather Stations






























Interactive Weather Map
Tropical Storm Tracking
New forecast layout! Learn more

10-Day Weather Forecast

Advertisements
Track Severe Weather on mobile